Strona główna
METAR-TAF:

METAR-TAF

Lotnisko :

Port lotniczy Kair

Kair, Egipt

Szerokość geograficzna: 30-08N, Długość geograficzna: 031-24E, wysokość: 64 m

Aktualna obserwacja pogody

Raport powstał 22 minut temu, godzina 18:30 UTC
Wiatr 8 kt od północ
Temperatura 33°C
Wilgotność 34%
Ciśnienie 1011 hPa
Widzialność 10 km lub więcej
Brak chmur poniżej 1500 m i brak chmur cumulonimbus

METAR: HECA 181830Z 01008KT CAVOK 33/15 Q1011 NOSIG

czas: 20:52 (18:52 UTC)

Prognoza

Raport powstał 1 godzina i 52 minut temu, godzina 17:00 UTC
Prognoza ważna od 18 godzina 18 UTC do 19 godzina 24 UTC
Wiatr 10 kt od północno-północny wschód
Widzialność 10 km lub więcej
Brak chmur poniżej 1500 m i brak chmur cumulonimbus

TAF: HECA 181700Z 1818/1924 02010KT CAVOK

Obserwacja i prognoza pogody dla ponad 4000 lotnisk (raport METAR i TAF).

Dostępne stacje oznaczono żółtymi i czerwonymi punktami na mapie.

Najedź kursorem aby zobaczyć nazwę stacji.

Kliknij aby zobaczyć obserwacje i prognozy pogody.

Aby zmienić mapę: kliknij na zielony przycisk z czarnym krzyżykiem, aby powiększyć; na zielony przycisk z myślnikiem, aby pomniejszyć; na zielone strzałki, aby przejść do map sąsiednich.


METAR-TAF: